Time;durP1;ratioP1;P1;durP2;ratioP2;P2;SDS_P1;SDS_P2;PMS_P1;PMS_P2;Temp;Humidity;BMP_temperature;BMP_pressure;BME280_temperature;BME280_humidity;BME280_pressure;Samples;Min_cycle;Max_cycle;Signal;HPM_P1;HPM_P2
2022/08/24 00:00:58;;;;;;;2.03;1.30;;;21.70;99.90;;;;;;5120120;28;20598;-77
2022/08/24 00:03:23;;;;;;;2.78;1.30;;;21.70;99.90;;;;;;5120372;28;20066;-77
2022/08/24 00:05:49;;;;;;;2.15;1.50;;;21.60;99.90;;;;;;5118835;28;20072;-77
2022/08/24 00:08:17;;;;;;;2.20;1.17;;;21.60;99.90;;;;;;5119303;28;20114;-78
2022/08/24 00:10:43;;;;;;;5.10;1.58;;;21.50;99.90;;;;;;5119683;28;20008;-77
2022/08/24 00:13:09;;;;;;;2.13;1.60;;;21.50;99.90;;;;;;5120371;28;20110;-78
2022/08/24 00:15:35;;;;;;;1.67;1.30;;;21.40;99.90;;;;;;5119729;28;20030;-77
2022/08/24 00:18:01;;;;;;;2.55;1.40;;;21.40;99.90;;;;;;5115667;28;20039;-77
2022/08/24 00:20:28;;;;;;;1.55;1.15;;;21.30;99.90;;;;;;5118970;28;20392;-77
2022/08/24 00:22:53;;;;;;;3.08;2.00;;;21.30;99.90;;;;;;5110702;28;20020;-77
2022/08/24 00:25:20;;;;;;;3.50;1.52;;;21.20;99.90;;;;;;5119772;28;20086;-77
2022/08/24 00:27:46;;;;;;;3.05;1.50;;;21.20;99.90;;;;;;5119459;27;20475;-77
2022/08/24 00:30:15;;;;;;;4.07;1.70;;;21.10;99.90;;;;;;5119148;28;20149;-77
2022/08/24 00:32:44;;;;;;;;;;;21.10;99.90;;;;;;5118756;28;20512;-77
2022/08/24 00:35:11;;;;;;;2.25;1.50;;;21.00;99.90;;;;;;5119873;28;19904;-77
2022/08/24 00:37:37;;;;;;;2.65;1.45;;;21.00;99.90;;;;;;5119614;28;20092;-77
2022/08/24 00:40:10;;;;;;;1.75;1.10;;;21.00;99.90;;;;;;5117977;28;20377;-77
2022/08/24 00:42:37;;;;;;;2.28;1.17;;;21.00;99.90;;;;;;5119548;28;20391;-77
2022/08/24 00:45:05;;;;;;;4.53;1.33;;;20.90;99.90;;;;;;5119442;28;20016;-77
2022/08/24 00:47:45;;;;;;;1.75;1.20;;;20.90;99.90;;;;;;5119406;28;20070;-77
2022/08/24 00:50:18;;;;;;;3.33;1.27;;;20.90;99.90;;;;;;5109440;28;20015;-77
2022/08/24 00:53:08;;;;;;;3.40;1.45;;;20.80;99.90;;;;;;5117904;28;20020;-77
2022/08/24 00:55:40;;;;;;;2.90;1.40;;;20.80;99.90;;;;;;5113679;28;20028;-77
2022/08/24 00:58:14;;;;;;;3.85;1.67;;;20.80;99.90;;;;;;5117346;28;20102;-77
2022/08/24 01:00:47;;;;;;;4.43;1.40;;;20.70;99.90;;;;;;5118883;28;20104;-77
2022/08/24 01:03:13;;;;;;;2.80;1.20;;;20.70;99.90;;;;;;5117559;28;20030;-77
2022/08/24 01:05:40;;;;;;;4.20;1.45;;;20.70;99.90;;;;;;5117423;28;20019;-77
2022/08/24 01:08:09;;;;;;;2.22;1.40;;;20.70;99.90;;;;;;5119337;28;20027;-77
2022/08/24 01:10:45;;;;;;;2.53;1.70;;;20.70;99.90;;;;;;5115422;28;20051;-77
2022/08/24 01:13:12;;;;;;;2.25;1.60;;;20.60;99.90;;;;;;5119240;28;20069;-76
2022/08/24 01:15:45;;;;;;;1.88;1.30;;;20.60;99.90;;;;;;5113116;28;20020;-77
2022/08/24 01:21:28;;;;;;;5.32;1.70;;;20.50;99.90;;;;;;5119054;28;20077;-77
2022/08/24 01:24:09;;;;;;;5.13;1.40;;;20.50;99.90;;;;;;5118985;28;20028;-77
2022/08/24 01:26:44;;;;;;;1.98;1.30;;;20.40;99.90;;;;;;5114122;28;20032;-77
2022/08/24 01:29:15;;;;;;;1.70;1.13;;;20.40;99.90;;;;;;5118398;28;20028;-77
2022/08/24 01:31:41;;;;;;;6.03;1.67;;;20.30;99.90;;;;;;5106288;28;20031;-77
2022/08/24 01:34:07;;;;;;;1.98;1.48;;;20.30;99.90;;;;;;5117553;28;20484;-77
2022/08/24 01:36:46;;;;;;;2.63;1.70;;;20.30;99.90;;;;;;5116722;28;20035;-77
2022/08/24 01:39:29;;;;;;;3.35;1.80;;;20.20;99.90;;;;;;5118454;28;20048;-77
2022/08/24 01:41:56;;;;;;;4.65;1.55;;;20.20;99.90;;;;;;5106620;28;20543;-77
2022/08/24 01:44:25;;;;;;;2.00;1.70;;;20.20;99.90;;;;;;5118070;28;20381;-77
2022/08/24 01:46:53;;;;;;;3.42;1.42;;;20.10;99.90;;;;;;5118037;28;20046;-77
2022/08/24 01:49:22;;;;;;;1.77;1.40;;;20.10;99.90;;;;;;5118352;28;20026;-77
2022/08/24 01:51:48;;;;;;;3.28;1.63;;;20.00;99.90;;;;;;5118352;28;20094;-78
2022/08/24 01:54:14;;;;;;;3.13;1.67;;;20.00;99.90;;;;;;5118203;28;20050;-77
2022/08/24 01:56:41;;;;;;;4.65;1.70;;;19.90;99.90;;;;;;5116702;28;20027;-77
2022/08/24 01:59:07;;;;;;;4.55;1.50;;;19.90;99.90;;;;;;5115696;28;20487;-77
2022/08/24 02:01:37;;;;;;;5.93;1.58;;;19.90;99.90;;;;;;5111811;28;20111;-78
2022/08/24 02:04:05;;;;;;;2.17;1.50;;;19.80;99.90;;;;;;5115033;28;20027;-77
2022/08/24 02:06:32;;;;;;;2.30;1.58;;;19.80;99.90;;;;;;5107057;28;20041;-77
2022/08/24 02:08:58;;;;;;;2.53;1.48;;;19.80;99.90;;;;;;5115079;28;20018;-77
2022/08/24 02:11:25;;;;;;;4.63;1.60;;;19.70;99.90;;;;;;5118109;28;20020;-78
2022/08/24 02:13:51;;;;;;;4.07;1.70;;;19.70;99.90;;;;;;5112804;28;20026;-78
2022/08/24 02:16:17;;;;;;;2.25;1.38;;;19.60;99.90;;;;;;5100315;28;20078;-78
2022/08/24 02:18:43;;;;;;;2.08;1.60;;;19.60;99.90;;;;;;5115380;28;20404;-77
2022/08/24 02:21:11;;;;;;;3.00;1.65;;;19.60;99.90;;;;;;5116415;28;20020;-78
2022/08/24 02:23:39;;;;;;;3.53;1.80;;;19.60;99.90;;;;;;5116264;28;20035;-77
2022/08/24 02:26:06;;;;;;;6.03;1.67;;;19.50;99.90;;;;;;5115840;28;20050;-77
2022/08/24 02:28:33;;;;;;;4.03;1.67;;;19.50;99.90;;;;;;5116074;28;20027;-78
2022/08/24 02:31:00;;;;;;;2.58;1.60;;;19.50;99.90;;;;;;5114748;28;20084;-78
2022/08/24 02:33:25;;;;;;;6.10;1.80;;;19.50;99.90;;;;;;5113205;28;20019;-77
2022/08/24 02:35:53;;;;;;;1.88;1.38;;;19.40;99.90;;;;;;5116368;28;20475;-77
2022/08/24 02:38:19;;;;;;;2.83;1.60;;;19.40;99.90;;;;;;5117491;28;20031;-77
2022/08/24 02:40:46;;;;;;;5.10;1.70;;;19.40;99.90;;;;;;5117528;28;20024;-77
2022/08/24 02:43:12;;;;;;;2.55;1.50;;;19.30;99.90;;;;;;5114489;28;20019;-78
2022/08/24 02:45:44;;;;;;;2.28;1.60;;;19.20;99.90;;;;;;5115954;28;20047;-77
2022/08/24 02:48:11;;;;;;;2.15;1.55;;;19.20;99.90;;;;;;5116772;28;20028;-77
2022/08/24 02:50:41;;;;;;;3.97;1.60;;;19.10;99.90;;;;;;5111636;28;20024;-77
2022/08/24 02:53:07;;;;;;;;;;;19.00;99.90;;;;;;5116394;28;20035;-77
2022/08/24 02:55:34;;;;;;;2.33;1.67;;;19.00;99.90;;;;;;5115095;28;19904;-77
2022/08/24 02:57:59;;;;;;;2.13;1.55;;;18.90;99.90;;;;;;5116963;28;20110;-78
2022/08/24 03:00:26;;;;;;;1.83;1.52;;;18.90;99.90;;;;;;5115447;28;20062;-77
2022/08/24 03:02:53;;;;;;;3.05;1.58;;;18.90;99.90;;;;;;5115911;28;20034;-77
2022/08/24 03:05:20;;;;;;;5.88;2.40;;;18.90;99.90;;;;;;5116849;28;20024;-77
2022/08/24 03:07:46;;;;;;;5.18;1.67;;;18.90;99.90;;;;;;5115248;28;20049;-77
2022/08/24 03:10:13;;;;;;;3.65;1.70;;;18.90;99.90;;;;;;5116862;28;20024;-77
2022/08/24 03:12:39;;;;;;;2.30;1.80;;;18.80;99.90;;;;;;5115054;28;20023;-78
2022/08/24 03:15:09;;;;;;;3.22;1.77;;;18.80;99.90;;;;;;5115607;28;20020;-78
2022/08/24 03:17:35;;;;;;;2.33;1.50;;;18.70;99.90;;;;;;5115743;28;20020;-78
2022/08/24 03:20:05;;;;;;;4.90;1.85;;;18.70;99.90;;;;;;5113755;28;20027;-76
2022/08/24 03:22:32;;;;;;;3.83;1.90;;;18.70;99.90;;;;;;5116997;28;20103;-77
2022/08/24 03:24:57;;;;;;;3.25;1.55;;;18.60;99.90;;;;;;5117023;28;20548;-77
2022/08/24 03:27:23;;;;;;;3.30;1.65;;;18.60;99.90;;;;;;5116535;28;20123;-77
2022/08/24 03:29:49;;;;;;;3.63;2.03;;;18.50;99.90;;;;;;5109520;28;20066;-77
2022/08/24 03:32:15;;;;;;;1.67;1.45;;;18.60;99.90;;;;;;5115545;28;20356;-75
2022/08/24 03:34:41;;;;;;;1.73;1.48;;;18.60;99.90;;;;;;5107107;28;20034;-77
2022/08/24 03:37:08;;;;;;;2.28;1.70;;;18.60;99.90;;;;;;5117107;28;20015;-75
2022/08/24 03:39:34;;;;;;;2.45;1.60;;;18.60;99.90;;;;;;5115245;28;20028;-77
2022/08/24 03:42:00;;;;;;;4.38;1.90;;;18.50;99.90;;;;;;5117037;28;20016;-78
2022/08/24 03:44:26;;;;;;;2.42;1.77;;;18.40;99.90;;;;;;5115180;28;20026;-77
2022/08/24 03:46:52;;;;;;;2.88;1.60;;;18.50;99.90;;;;;;5116940;28;20031;-76
2022/08/24 03:49:18;;;;;;;3.88;1.50;;;18.50;99.90;;;;;;5114667;28;20053;-75
2022/08/24 03:51:44;;;;;;;3.92;1.52;;;18.40;99.90;;;;;;5117061;28;20023;-78
2022/08/24 03:54:11;;;;;;;2.35;1.90;;;18.40;99.90;;;;;;5112313;28;20020;-76
2022/08/24 03:56:38;;;;;;;3.08;1.50;;;18.40;99.90;;;;;;5120439;28;20031;-75
2022/08/24 03:59:06;;;;;;;2.45;1.75;;;18.40;99.90;;;;;;5113955;28;20028;-76
2022/08/24 04:01:32;;;;;;;5.15;1.90;;;18.40;99.90;;;;;;5118871;28;20024;-75
2022/08/24 04:03:58;;;;;;;1.88;1.38;;;18.40;99.90;;;;;;5114432;27;20462;-76
2022/08/24 04:06:24;;;;;;;3.60;1.92;;;18.30;99.90;;;;;;5118277;28;20058;-75
2022/08/24 04:08:51;;;;;;;2.58;1.83;;;18.30;99.90;;;;;;5120199;28;20026;-75
2022/08/24 04:11:23;;;;;;;5.00;2.05;;;18.30;99.90;;;;;;5118974;28;20027;-75
2022/08/24 04:13:53;;;;;;;3.60;2.15;;;18.30;99.90;;;;;;5118274;28;20489;-75
2022/08/24 04:16:20;;;;;;;7.47;2.30;;;18.30;99.90;;;;;;5119970;28;20027;-75
2022/08/24 04:18:47;;;;;;;3.97;1.50;;;18.30;99.90;;;;;;5106183;28;20027;-76
2022/08/24 04:21:27;;;;;;;7.90;1.80;;;18.30;99.90;;;;;;5120136;28;20028;-75
2022/08/24 04:23:54;;;;;;;3.63;1.90;;;18.30;99.90;;;;;;5119956;28;20027;-78
2022/08/24 04:26:22;;;;;;;4.13;2.08;;;18.30;99.90;;;;;;5113713;28;20112;-75
2022/08/24 04:28:49;;;;;;;3.60;1.85;;;18.20;99.90;;;;;;5119512;28;20019;-75
2022/08/24 04:31:16;;;;;;;3.03;1.83;;;18.30;99.90;;;;;;5113141;28;20049;-75
2022/08/24 04:33:43;;;;;;;4.78;1.90;;;18.20;99.90;;;;;;5118358;28;20083;-75
2022/08/24 04:36:10;;;;;;;1.98;1.52;;;18.30;99.90;;;;;;5119671;28;20030;-75
2022/08/24 04:38:36;;;;;;;2.30;1.65;;;18.30;99.90;;;;;;5118311;28;20019;-75
2022/08/24 04:41:05;;;;;;;3.53;1.80;;;18.30;99.90;;;;;;5109659;28;20119;-75
2022/08/24 04:43:32;;;;;;;3.42;2.10;;;18.20;99.90;;;;;;5119265;28;20051;-75
2022/08/24 04:45:58;;;;;;;2.72;1.70;;;18.20;99.90;;;;;;5119254;28;20480;-75
2022/08/24 04:48:24;;;;;;;2.90;1.92;;;18.20;99.90;;;;;;5117668;28;20034;-75
2022/08/24 04:50:50;;;;;;;2.28;1.65;;;18.10;99.90;;;;;;5110833;28;20012;-75
2022/08/24 04:53:16;;;;;;;3.05;2.10;;;18.10;99.90;;;;;;5119158;28;20019;-75
2022/08/24 04:55:48;;;;;;;2.22;1.75;;;18.10;99.90;;;;;;5119068;28;20016;-75
2022/08/24 04:58:16;;;;;;;1.75;1.50;;;18.10;99.90;;;;;;5119171;28;20028;-76
2022/08/24 05:00:43;;;;;;;4.25;1.67;;;18.10;99.90;;;;;;5119109;28;20016;-75
2022/08/24 05:03:10;;;;;;;2.40;1.65;;;18.10;99.90;;;;;;5117785;28;20032;-75
2022/08/24 05:05:41;;;;;;;3.28;1.95;;;18.10;99.90;;;;;;5118613;28;20484;-75
2022/08/24 05:08:07;;;;;;;3.88;2.00;;;18.00;99.90;;;;;;5119072;28;20472;-75
2022/08/24 05:10:33;;;;;;;4.22;1.88;;;18.00;99.90;;;;;;5107327;28;20023;-75
2022/08/24 05:12:59;;;;;;;3.05;1.60;;;18.00;99.90;;;;;;5119083;28;20471;-75
2022/08/24 05:15:25;;;;;;;2.45;1.90;;;18.00;99.90;;;;;;5118557;28;20018;-75
2022/08/24 05:17:50;;;;;;;2.40;1.92;;;18.00;99.90;;;;;;5107978;28;20089;-75
2022/08/24 05:20:16;;;;;;;2.08;1.60;;;18.00;99.90;;;;;;5116427;28;20099;-75
2022/08/24 05:22:42;;;;;;;3.25;2.20;;;18.00;99.90;;;;;;5116724;28;20058;-75
2022/08/24 05:25:08;;;;;;;3.97;1.98;;;18.00;99.90;;;;;;5112426;28;20035;-75
2022/08/24 05:27:34;;;;;;;5.22;2.47;;;18.10;99.90;;;;;;5118535;28;20046;-76
2022/08/24 05:30:02;;;;;;;6.57;2.20;;;18.10;99.90;;;;;;5112901;28;20024;-75
2022/08/24 05:32:27;;;;;;;5.60;1.90;;;18.10;99.90;;;;;;5112376;28;20024;-75
2022/08/24 05:34:53;;;;;;;3.63;1.80;;;18.10;99.90;;;;;;5108387;28;20024;-76
2022/08/24 05:37:19;;;;;;;3.05;2.10;;;18.20;99.90;;;;;;5114071;28;20026;-75
2022/08/24 05:39:45;;;;;;;3.05;1.83;;;18.20;99.90;;;;;;5114000;28;20563;-75
2022/08/24 05:42:12;;;;;;;1.83;1.60;;;18.30;99.90;;;;;;5118563;27;20024;-77
2022/08/24 05:44:38;;;;;;;5.97;1.90;;;18.40;99.90;;;;;;5116758;28;20437;-77
2022/08/24 05:47:04;;;;;;;4.10;2.53;;;18.40;99.90;;;;;;5118053;28;20084;-75
2022/08/24 05:49:30;;;;;;;3.97;1.80;;;18.50;99.90;;;;;;5112843;28;20042;-74
2022/08/24 05:51:55;;;;;;;3.22;2.03;;;18.50;99.90;;;;;;5100211;28;20056;-74
2022/08/24 05:54:23;;;;;;;3.28;1.60;;;18.60;99.90;;;;;;5116709;28;20026;-74
2022/08/24 05:56:50;;;;;;;2.60;1.90;;;18.70;99.90;;;;;;5118125;28;20031;-74
2022/08/24 05:59:18;;;;;;;4.45;2.25;;;18.80;99.90;;;;;;5117692;28;20027;-74
2022/08/24 06:01:44;;;;;;;2.30;1.60;;;18.80;99.90;;;;;;5117534;28;20106;-74
2022/08/24 06:04:10;;;;;;;3.25;2.15;;;18.90;99.90;;;;;;5116942;28;20024;-74
2022/08/24 06:06:36;;;;;;;3.70;1.90;;;19.00;99.90;;;;;;5107042;28;20063;-74
2022/08/24 06:09:03;;;;;;;5.53;2.30;;;19.00;99.90;;;;;;5116936;28;20019;-74
2022/08/24 06:11:36;;;;;;;2.53;1.90;;;19.10;99.90;;;;;;5116986;28;20528;-74
2022/08/24 06:14:28;;;;;;;4.22;2.20;;;19.20;99.90;;;;;;5098554;28;20118;-74
2022/08/24 06:16:54;;;;;;;2.28;1.98;;;19.30;99.90;;;;;;5109039;28;20126;-74
2022/08/24 06:19:20;;;;;;;3.22;2.25;;;19.40;99.90;;;;;;5116637;28;20051;-74
2022/08/24 06:21:48;;;;;;;3.40;2.10;;;19.50;99.90;;;;;;5116647;28;20027;-74
2022/08/24 06:24:15;;;;;;;3.15;1.80;;;19.60;99.90;;;;;;5116034;28;20522;-74
2022/08/24 06:29:29;;;;;;;5.18;1.88;;;19.70;99.90;;;;;;5116902;28;20080;-74
2022/08/24 06:31:55;;;;;;;6.13;2.30;;;19.90;99.90;;;;;;5117365;28;20034;-74
2022/08/24 06:34:23;;;;;;;3.58;2.00;;;19.90;99.90;;;;;;5112169;28;20012;-74
2022/08/24 06:36:49;;;;;;;2.50;1.70;;;20.00;99.90;;;;;;5117971;28;20424;-74
2022/08/24 06:39:15;;;;;;;7.10;2.88;;;20.10;99.90;;;;;;5106785;27;20030;-74
2022/08/24 06:41:41;;;;;;;4.40;1.52;;;20.20;99.90;;;;;;5112242;28;20024;-75
2022/08/24 06:44:07;;;;;;;3.05;1.75;;;20.40;99.90;;;;;;5117181;28;20026;-74
2022/08/24 06:46:35;;;;;;;3.53;2.28;;;20.50;99.90;;;;;;5105295;28;20035;-74
2022/08/24 06:49:01;;;;;;;5.20;1.70;;;20.60;99.90;;;;;;5116318;28;20024;-74
2022/08/24 06:51:27;;;;;;;3.22;2.03;;;20.70;99.90;;;;;;5107672;28;20027;-75
2022/08/24 06:53:57;;;;;;;5.53;2.53;;;20.80;99.90;;;;;;5109446;28;20024;-75
2022/08/24 06:56:23;;;;;;;3.95;2.03;;;20.90;99.90;;;;;;5116373;28;20031;-75
2022/08/24 06:58:49;;;;;;;3.28;1.77;;;21.00;99.90;;;;;;5095129;28;20028;-74
2022/08/24 07:01:21;;;;;;;2.83;1.77;;;21.10;99.90;;;;;;5117075;28;20103;-74
2022/08/24 07:03:47;;;;;;;4.25;1.75;;;21.20;99.90;;;;;;5109936;28;20030;-74
2022/08/24 07:06:13;;;;;;;8.73;2.28;;;21.30;99.90;;;;;;5117191;28;20480;-74
2022/08/24 07:08:41;;;;;;;2.97;1.75;;;21.40;99.90;;;;;;5115563;28;20015;-74
2022/08/24 07:11:08;;;;;;;5.78;1.88;;;21.60;99.90;;;;;;5114052;28;20114;-74
2022/08/24 07:13:34;;;;;;;3.75;1.67;;;21.70;99.90;;;;;;5116791;28;20472;-74
2022/08/24 07:16:00;;;;;;;3.38;1.63;;;21.70;99.90;;;;;;5116607;28;20039;-75
2022/08/24 07:18:27;;;;;;;2.72;1.55;;;21.80;99.90;;;;;;5103516;28;20031;-75
2022/08/24 07:20:54;;;;;;;4.35;2.08;;;22.00;99.90;;;;;;5110400;28;20025;-75
2022/08/24 07:23:20;;;;;;;4.88;1.63;;;22.00;99.90;;;;;;5116527;28;20012;-74
2022/08/24 07:25:47;;;;;;;3.17;1.70;;;22.20;99.90;;;;;;5110482;28;20031;-74
2022/08/24 07:28:13;;;;;;;8.13;2.08;;;22.30;99.90;;;;;;5113455;28;20406;-78
2022/08/24 07:30:41;;;;;;;3.55;1.92;;;22.30;99.90;;;;;;5120922;28;20023;-78
2022/08/24 07:33:07;;;;;;;2.50;1.70;;;22.50;99.90;;;;;;5107990;27;20016;-77
2022/08/24 07:35:35;;;;;;;2.40;1.70;;;22.60;99.90;;;;;;5114728;28;20102;-77
2022/08/24 07:38:03;;;;;;;6.20;1.90;;;22.60;99.90;;;;;;5119480;28;20034;-76
2022/08/24 07:40:29;;;;;;;3.10;1.50;;;22.70;99.90;;;;;;5110467;28;20024;-78
2022/08/24 07:42:57;;;;;;;3.08;1.75;;;22.80;99.90;;;;;;5112537;28;20069;-77
2022/08/24 07:45:24;;;;;;;4.82;1.48;;;23.00;99.90;;;;;;5111126;28;20115;-75
2022/08/24 07:47:50;;;;;;;3.60;1.52;;;23.20;99.90;;;;;;5117685;28;20022;-77
2022/08/24 07:50:17;;;;;;;2.90;1.90;;;23.30;99.90;;;;;;5117292;28;20024;-77
2022/08/24 07:52:44;;;;;;;2.63;1.80;;;23.30;99.90;;;;;;5118817;28;20020;-79
2022/08/24 07:55:11;;;;;;;3.78;1.58;;;23.50;99.90;;;;;;5119663;28;20024;-78
2022/08/24 07:57:39;;;;;;;3.03;1.70;;;23.50;99.90;;;;;;5100959;28;20034;-79
2022/08/24 08:00:10;;;;;;;3.33;1.75;;;23.60;99.90;;;;;;5110517;28;20028;-76
2022/08/24 08:02:37;;;;;;;2.53;1.65;;;23.60;99.90;;;;;;5118009;28;20485;-81
2022/08/24 08:05:04;;;;;;;17.17;1.90;;;23.80;99.90;;;;;;5108232;27;20498;-78
2022/08/24 08:07:30;;;;;;;3.67;1.70;;;23.90;99.90;;;;;;5110038;28;20411;-77
2022/08/24 08:09:56;;;;;;;4.35;1.90;;;24.00;99.90;;;;;;5118451;28;20106;-77
2022/08/24 08:12:22;;;;;;;6.97;1.75;;;24.10;99.90;;;;;;5114383;28;20035;-77
2022/08/24 08:14:48;;;;;;;2.75;1.50;;;24.10;99.90;;;;;;5119586;28;20031;-77
2022/08/24 08:17:15;;;;;;;2.78;1.30;;;24.10;99.90;;;;;;5107840;28;20050;-76
2022/08/24 08:19:42;;;;;;;5.40;1.52;;;24.20;99.90;;;;;;5116790;28;20027;-77
2022/08/24 08:24:53;;;;;;;7.65;1.83;;;24.60;99.90;;;;;;5119806;28;20043;-77
2022/08/24 08:27:20;;;;;;;5.13;1.50;;;24.70;99.90;;;;;;5119343;28;20044;-77
2022/08/24 08:29:47;;;;;;;1.67;1.20;;;24.80;99.90;;;;;;5106463;28;20023;-78
2022/08/24 08:32:15;;;;;;;1.90;1.40;;;25.00;99.90;;;;;;5119414;28;20099;-77
2022/08/24 08:34:42;;;;;;;1.85;1.40;;;25.10;99.90;;;;;;5119283;28;20415;-77
2022/08/24 08:37:09;;;;;;;2.97;1.30;;;25.30;99.90;;;;;;5117963;28;20019;-78
2022/08/24 08:39:35;;;;;;;7.22;1.88;;;25.50;99.90;;;;;;5119153;28;20028;-77
2022/08/24 08:42:39;;;;;;;4.93;1.35;;;25.50;99.90;;;;;;5116938;28;20058;-77
2022/08/24 08:45:21;;;;;;;1.67;1.20;;;25.80;99.90;;;;;;5118797;28;20035;-79
2022/08/24 08:48:05;;;;;;;1.83;1.17;;;25.90;99.90;;;;;;5113544;28;20030;-78
2022/08/24 08:50:55;;;;;;;1.63;1.30;;;26.10;99.90;;;;;;5118990;28;20028;-80
2022/08/24 08:53:52;;;;;;;4.22;0.82;;;26.20;99.90;;;;;;5117762;28;20081;-78
2022/08/24 08:56:43;;;;;;;5.13;1.30;;;26.50;99.90;;;;;;5117642;28;20025;-79
2022/08/24 08:59:38;;;;;;;1.88;1.50;;;26.60;99.90;;;;;;5118532;28;20035;-78
2022/08/24 09:02:29;;;;;;;2.22;1.33;;;26.80;99.90;;;;;;5107559;28;20042;-80
2022/08/24 09:05:12;;;;;;;1.65;0.90;;;27.00;99.90;;;;;;5108528;28;20062;-79
2022/08/24 09:07:55;;;;;;;1.85;1.10;;;27.10;99.90;;;;;;5117473;27;20088;-81
2022/08/24 09:10:29;;;;;;;5.60;1.33;;;27.10;99.90;;;;;;5113789;28;20024;-81
2022/08/24 09:13:10;;;;;;;3.30;1.20;;;27.30;99.90;;;;;;5116406;28;20054;-80
2022/08/24 09:15:45;;;;;;;2.42;1.05;;;27.30;99.90;;;;;;5118516;28;20022;-80
2022/08/24 09:18:26;;;;;;;1.88;0.90;;;27.50;99.90;;;;;;5111657;28;20030;-81
2022/08/24 09:20:59;;;;;;;;;;;27.60;99.90;;;;;;5115526;28;20026;-80
2022/08/24 09:23:34;;;;;;;5.68;0.93;;;27.70;99.90;;;;;;5118541;28;19994;-81
2022/08/24 09:26:24;;;;;;;2.28;1.10;;;27.90;99.90;;;;;;5118131;28;20392;-79
2022/08/24 09:29:04;;;;;;;1.00;0.70;;;28.00;99.90;;;;;;5116115;28;20023;-79
2022/08/24 09:31:40;;;;;;;3.38;0.85;;;28.00;99.90;;;;;;5113185;28;20027;-82
2022/08/24 09:34:48;;;;;;;3.33;0.90;;;28.20;99.90;;;;;;5107283;28;20076;-84
2022/08/24 09:37:39;;;;;;;6.82;1.13;;;28.30;99.90;;;;;;5098198;28;20040;-81
2022/08/24 09:40:38;;;;;;;3.22;1.20;;;28.40;99.90;;;;;;5105775;28;20032;-84
2022/08/24 09:43:07;;;;;;;2.20;0.82;;;28.50;99.90;;;;;;5112270;28;20092;-80
2022/08/24 09:46:04;;;;;;;2.92;0.98;;;28.70;99.90;;;;;;5111422;28;20778;-80
2022/08/24 09:48:49;;;;;;;5.88;0.82;;;28.90;99.90;;;;;;5114848;28;20028;-83
2022/08/24 09:51:37;;;;;;;2.72;0.80;;;28.90;99.90;;;;;;5116764;28;20030;-80
2022/08/24 09:54:24;;;;;;;2.65;1.05;;;29.10;99.30;;;;;;5117815;28;20019;-80
2022/08/24 09:57:16;;;;;;;5.63;0.77;;;29.10;99.50;;;;;;5117325;28;20019;-81
2022/08/24 09:59:58;;;;;;;3.35;1.10;;;29.20;99.70;;;;;;5116143;27;20020;-81
2022/08/24 10:03:11;;;;;;;2.75;1.20;;;29.30;99.30;;;;;;5098725;28;20033;-81
2022/08/24 10:06:10;;;;;;;0.88;0.70;;;29.30;98.30;;;;;;5059216;28;20048;-83
2022/08/24 10:08:51;;;;;;;2.05;1.00;;;29.30;98.00;;;;;;5115670;28;20024;-83
2022/08/24 10:11:17;;;;;;;2.38;0.88;;;29.40;97.80;;;;;;5116277;28;20035;-82
2022/08/24 10:14:08;;;;;;;5.35;0.77;;;29.50;96.30;;;;;;5116539;28;20019;-77
2022/08/24 10:17:01;;;;;;;1.25;0.57;;;29.60;97.00;;;;;;5108905;28;20119;-77
2022/08/24 10:19:49;;;;;;;1.00;0.60;;;29.70;97.10;;;;;;5112039;28;20507;-77
2022/08/24 10:22:35;;;;;;;3.30;1.00;;;29.80;95.00;;;;;;5117187;28;20030;-77
2022/08/24 10:25:30;;;;;;;0.88;0.50;;;29.80;94.60;;;;;;5115062;28;20016;-77
2022/08/24 10:27:58;;;;;;;2.67;1.00;;;30.00;95.30;;;;;;5115798;28;20097;-76
2022/08/24 10:30:58;;;;;;;2.35;0.88;;;30.10;94.80;;;;;;5117453;28;20373;-77
2022/08/24 10:33:25;;;;;;;1.73;0.77;;;30.10;94.10;;;;;;5112721;28;20024;-77
2022/08/24 10:36:03;;;;;;;1.40;0.75;;;30.20;93.80;;;;;;5117214;28;20448;-77
2022/08/24 10:41:47;;;;;;;0.77;0.55;;;30.30;92.90;;;;;;5117062;28;20042;-77
2022/08/24 10:44:39;;;;;;;2.03;0.63;;;30.30;93.00;;;;;;5116942;28;20024;-77
2022/08/24 10:47:27;;;;;;;1.40;0.52;;;30.30;91.50;;;;;;5106469;28;20032;-77
2022/08/24 10:49:58;;;;;;;1.02;0.70;;;30.50;92.00;;;;;;5107532;28;20377;-76
2022/08/24 10:53:01;;;;;;;2.72;1.67;;;30.50;91.10;;;;;;5111203;28;20082;-76
2022/08/24 10:55:31;;;;;;;1.50;0.73;;;30.60;91.60;;;;;;5114526;28;20476;-76
2022/08/24 10:58:36;;;;;;;4.50;1.00;;;30.60;91.00;;;;;;5109503;28;20107;-76
2022/08/24 11:01:32;;;;;;;4.95;1.20;;;30.80;89.90;;;;;;5114022;28;20024;-76
2022/08/24 11:04:09;;;;;;;2.65;0.90;;;30.90;90.80;;;;;;5116069;28;20052;-74
2022/08/24 11:07:00;;;;;;;4.43;1.02;;;30.90;87.20;;;;;;5121568;28;20028;-72
2022/08/24 11:09:53;;;;;;;2.38;1.02;;;30.90;89.90;;;;;;5099787;28;20089;-73
2022/08/24 11:12:31;;;;;;;5.75;1.30;;;30.90;87.40;;;;;;5114519;28;20017;-74
2022/08/24 11:15:10;;;;;;;3.58;1.27;;;31.00;86.50;;;;;;5114363;28;20450;-74
2022/08/24 11:17:36;;;;;;;7.43;1.73;;;31.20;85.10;;;;;;5121519;28;20419;-74
2022/08/24 11:20:22;;;;;;;3.65;1.83;;;31.20;87.20;;;;;;5121509;28;20028;-74
2022/08/24 11:23:07;;;;;;;5.78;1.73;;;31.20;86.40;;;;;;5120865;28;20092;-74
2022/08/24 11:25:37;;;;;;;3.80;1.70;;;31.10;85.60;;;;;;5114785;28;20024;-74
2022/08/24 11:28:28;;;;;;;2.05;1.25;;;31.10;86.40;;;;;;5105688;28;20090;-74
2022/08/24 11:30:54;;;;;;;5.50;1.38;;;31.30;86.40;;;;;;5121441;28;20079;-74
2022/08/24 11:33:43;;;;;;;3.88;1.42;;;31.40;80.30;;;;;;5121082;28;20597;-73
2022/08/24 11:36:24;;;;;;;2.28;1.20;;;31.50;83.00;;;;;;5121275;28;20054;-74
2022/08/24 11:39:12;;;;;;;3.97;1.48;;;31.60;82.20;;;;;;5110529;28;20020;-74
2022/08/24 11:41:54;;;;;;;3.88;1.10;;;31.50;79.50;;;;;;5119871;28;20099;-74
2022/08/24 11:44:31;;;;;;;3.60;1.10;;;31.70;80.60;;;;;;5105616;28;20496;-73
2022/08/24 11:47:09;;;;;;;1.52;0.70;;;31.70;80.60;;;;;;5120972;28;20036;-74
2022/08/24 11:49:55;;;;;;;2.60;0.65;;;31.70;79.70;;;;;;5120973;28;20077;-73
2022/08/24 11:52:45;;;;;;;1.25;0.77;;;31.70;79.60;;;;;;5120879;28;20436;-74
2022/08/24 11:55:28;;;;;;;5.00;0.70;;;31.80;79.60;;;;;;5121255;28;20129;-74
2022/08/24 11:58:17;;;;;;;1.48;0.80;;;32.00;74.50;;;;;;5120585;28;20024;-73
2022/08/24 12:00:43;;;;;;;1.52;0.73;;;32.00;76.70;;;;;;5121061;28;20123;-74
2022/08/24 12:03:09;;;;;;;1.33;0.70;;;32.00;77.20;;;;;;5120692;28;20024;-75
2022/08/24 12:05:57;;;;;;;1.85;0.80;;;32.10;74.00;;;;;;5120674;28;20020;-74
2022/08/24 12:08:29;;;;;;;1.67;0.70;;;32.10;71.80;;;;;;5120692;28;20440;-75
2022/08/24 12:11:22;;;;;;;1.55;0.60;;;32.20;73.20;;;;;;5099117;28;20035;-75
2022/08/24 12:14:18;;;;;;;5.43;0.70;;;32.30;73.30;;;;;;5117086;28;20020;-74
2022/08/24 12:16:57;;;;;;;1.98;0.70;;;32.40;70.60;;;;;;5118047;28;20058;-75
2022/08/24 12:19:28;;;;;;;1.23;0.60;;;32.50;72.30;;;;;;5110121;28;20103;-74
2022/08/24 12:21:59;;;;;;;1.52;0.73;;;32.50;71.20;;;;;;5120366;28;20023;-75
2022/08/24 12:24:37;;;;;;;1.02;0.70;;;32.40;69.90;;;;;;5120384;28;20027;-74
2022/08/24 12:27:12;;;;;;;1.60;0.80;;;32.40;72.40;;;;;;5118585;28;20051;-74
2022/08/24 12:29:41;;;;;;;1.00;0.60;;;32.40;70.40;;;;;;5120116;28;20020;-75
2022/08/24 12:32:23;;;;;;;1.42;0.50;;;32.30;69.60;;;;;;5120293;28;20031;-74
2022/08/24 12:35:04;;;;;;;1.38;0.80;;;32.40;68.40;;;;;;5101562;28;20127;-74
2022/08/24 12:37:38;;;;;;;2.90;0.50;;;32.60;69.70;;;;;;5098427;28;20028;-75
2022/08/24 12:40:22;;;;;;;3.78;0.70;;;32.80;68.30;;;;;;5120088;28;20034;-75
2022/08/24 12:43:07;;;;;;;4.60;0.50;;;32.80;69.10;;;;;;5119749;28;20056;-74
2022/08/24 12:45:35;;;;;;;2.10;0.65;;;32.90;69.00;;;;;;5120257;28;20035;-74
2022/08/24 12:48:13;;;;;;;0.90;0.45;;;32.90;68.30;;;;;;5119658;28;20024;-75
2022/08/24 12:50:51;;;;;;;1.27;0.80;;;32.90;69.80;;;;;;5119829;28;20019;-73
2022/08/24 12:53:33;;;;;;;1.52;0.68;;;33.00;67.80;;;;;;5119753;28;20102;-74
2022/08/24 12:56:20;;;;;;;0.90;0.52;;;33.00;66.90;;;;;;5119850;28;20015;-74
2022/08/24 12:58:58;;;;;;;2.17;0.60;;;33.00;66.50;;;;;;5104379;28;20028;-74
2022/08/24 13:01:28;;;;;;;1.10;0.50;;;33.20;64.30;;;;;;5108948;28;20166;-75
2022/08/24 13:04:11;;;;;;;2.30;0.40;;;33.20;65.90;;;;;;5100833;28;20020;-75
2022/08/24 13:06:50;;;;;;;1.08;0.65;;;33.30;66.40;;;;;;5119727;28;20019;-75
2022/08/24 13:09:38;;;;;;;1.55;0.60;;;33.30;67.00;;;;;;5111016;28;20377;-75
2022/08/24 13:12:45;;;;;;;1.50;0.70;;;33.40;63.10;;;;;;5116294;28;20020;-74
2022/08/24 13:15:23;;;;;;;0.95;0.40;;;33.40;64.00;;;;;;5056430;28;20025;-75
2022/08/24 13:18:06;;;;;;;3.05;0.60;;;33.60;63.10;;;;;;5103651;28;20032;-74
2022/08/24 13:20:37;;;;;;;1.05;0.50;;;33.60;62.80;;;;;;5118253;28;20027;-74
2022/08/24 13:23:12;;;;;;;2.03;0.50;;;33.70;61.70;;;;;;5119459;28;20076;-74
2022/08/24 13:25:50;;;;;;;1.80;0.57;;;33.70;61.60;;;;;;5119174;28;20032;-75
2022/08/24 13:28:22;;;;;;;1.42;0.50;;;33.70;61.30;;;;;;5118076;28;20044;-75